sensor_id;sensor_type;location;lat;lon;timestamp;temperature;humidity
3194;DHT22;1608;50.860;13.466;2022-12-10T00:02:03;2.90;99.90
3194;DHT22;1608;50.860;13.466;2022-12-10T00:04:31;3.00;99.90
3194;DHT22;1608;50.860;13.466;2022-12-10T00:06:57;3.00;99.90
3194;DHT22;1608;50.860;13.466;2022-12-10T00:09:24;3.00;99.90
3194;DHT22;1608;50.860;13.466;2022-12-10T00:11:51;3.00;99.90
3194;DHT22;1608;50.860;13.466;2022-12-10T00:14:18;3.10;99.90
3194;DHT22;1608;50.860;13.466;2022-12-10T00:16:45;3.10;99.90
3194;DHT22;1608;50.860;13.466;2022-12-10T00:19:12;3.00;99.90
3194;DHT22;1608;50.860;13.466;2022-12-10T00:21:40;2.90;99.90
3194;DHT22;1608;50.860;13.466;2022-12-10T00:24:08;2.80;99.90
3194;DHT22;1608;50.860;13.466;2022-12-10T00:26:36;2.90;99.90
3194;DHT22;1608;50.860;13.466;2022-12-10T00:29:06;2.90;99.90
3194;DHT22;1608;50.860;13.466;2022-12-10T00:31:34;2.90;99.90
3194;DHT22;1608;50.860;13.466;2022-12-10T00:34:05;3.00;99.90
3194;DHT22;1608;50.860;13.466;2022-12-10T00:36:34;3.00;99.90
3194;DHT22;1608;50.860;13.466;2022-12-10T00:39:03;3.00;99.90
3194;DHT22;1608;50.860;13.466;2022-12-10T00:41:31;3.00;99.90
3194;DHT22;1608;50.860;13.466;2022-12-10T00:43:58;3.10;99.90
3194;DHT22;1608;50.860;13.466;2022-12-10T00:46:26;3.20;99.90
3194;DHT22;1608;50.860;13.466;2022-12-10T00:48:53;3.20;99.90
3194;DHT22;1608;50.860;13.466;2022-12-10T00:51:21;3.30;99.90
3194;DHT22;1608;50.860;13.466;2022-12-10T00:53:49;3.20;99.90
3194;DHT22;1608;50.860;13.466;2022-12-10T00:56:20;3.10;99.90
3194;DHT22;1608;50.860;13.466;2022-12-10T00:58:47;3.10;99.90
3194;DHT22;1608;50.860;13.466;2022-12-10T01:01:17;3.10;99.90
3194;DHT22;1608;50.860;13.466;2022-12-10T01:03:45;3.10;99.90
3194;DHT22;1608;50.860;13.466;2022-12-10T01:06:14;3.00;99.90
3194;DHT22;1608;50.860;13.466;2022-12-10T01:08:41;3.10;99.90
3194;DHT22;1608;50.860;13.466;2022-12-10T01:11:09;3.10;99.90
3194;DHT22;1608;50.860;13.466;2022-12-10T01:13:38;3.00;99.90
3194;DHT22;1608;50.860;13.466;2022-12-10T01:16:07;3.10;99.90
3194;DHT22;1608;50.860;13.466;2022-12-10T01:18:34;3.20;99.90
3194;DHT22;1608;50.860;13.466;2022-12-10T01:21:02;3.30;99.90
3194;DHT22;1608;50.860;13.466;2022-12-10T01:23:32;3.10;99.90
3194;DHT22;1608;50.860;13.466;2022-12-10T01:26:00;3.20;99.90
3194;DHT22;1608;50.860;13.466;2022-12-10T01:28:29;3.10;99.90
3194;DHT22;1608;50.860;13.466;2022-12-10T01:31:01;3.10;99.90
3194;DHT22;1608;50.860;13.466;2022-12-10T01:33:28;3.20;99.90
3194;DHT22;1608;50.860;13.466;2022-12-10T01:35:55;3.10;99.90
3194;DHT22;1608;50.860;13.466;2022-12-10T01:38:22;3.00;99.90
3194;DHT22;1608;50.860;13.466;2022-12-10T01:40:49;3.00;99.90
3194;DHT22;1608;50.860;13.466;2022-12-10T01:43:16;3.10;99.90
3194;DHT22;1608;50.860;13.466;2022-12-10T01:45:42;3.00;99.90
3194;DHT22;1608;50.860;13.466;2022-12-10T01:48:11;3.00;99.90
3194;DHT22;1608;50.860;13.466;2022-12-10T01:50:38;3.10;99.90
3194;DHT22;1608;50.860;13.466;2022-12-10T01:53:05;3.10;99.90
3194;DHT22;1608;50.860;13.466;2022-12-10T01:55:43;3.20;99.90
3194;DHT22;1608;50.860;13.466;2022-12-10T01:58:11;3.30;99.90
3194;DHT22;1608;50.860;13.466;2022-12-10T02:00:43;3.30;99.90
3194;DHT22;1608;50.860;13.466;2022-12-10T02:03:14;3.20;99.90
3194;DHT22;1608;50.860;13.466;2022-12-10T02:05:46;3.30;99.90
3194;DHT22;1608;50.860;13.466;2022-12-10T02:08:21;3.20;99.90
3194;DHT22;1608;50.860;13.466;2022-12-10T02:10:59;3.20;99.90
3194;DHT22;1608;50.860;13.466;2022-12-10T02:13:30;3.20;99.90
3194;DHT22;1608;50.860;13.466;2022-12-10T02:16:04;3.20;99.90
3194;DHT22;1608;50.860;13.466;2022-12-10T02:18:37;3.30;99.90
3194;DHT22;1608;50.860;13.466;2022-12-10T02:21:08;3.30;99.90
3194;DHT22;1608;50.860;13.466;2022-12-10T02:23:38;3.30;99.90
3194;DHT22;1608;50.860;13.466;2022-12-10T02:26:11;3.30;99.90
3194;DHT22;1608;50.860;13.466;2022-12-10T02:28:45;3.20;99.90
3194;DHT22;1608;50.860;13.466;2022-12-10T02:31:17;3.20;99.90
3194;DHT22;1608;50.860;13.466;2022-12-10T02:33:48;3.20;99.90
3194;DHT22;1608;50.860;13.466;2022-12-10T02:36:16;3.20;99.90
3194;DHT22;1608;50.860;13.466;2022-12-10T02:38:44;3.20;99.90
3194;DHT22;1608;50.860;13.466;2022-12-10T02:41:16;3.20;99.90
3194;DHT22;1608;50.860;13.466;2022-12-10T02:43:46;3.10;99.90
3194;DHT22;1608;50.860;13.466;2022-12-10T02:46:15;3.00;99.90
3194;DHT22;1608;50.860;13.466;2022-12-10T02:48:43;3.00;99.90
3194;DHT22;1608;50.860;13.466;2022-12-10T02:51:11;2.90;99.90
3194;DHT22;1608;50.860;13.466;2022-12-10T02:53:41;2.90;99.90
3194;DHT22;1608;50.860;13.466;2022-12-10T02:56:14;2.90;99.90
3194;DHT22;1608;50.860;13.466;2022-12-10T02:58:54;2.90;99.90
3194;DHT22;1608;50.860;13.466;2022-12-10T03:01:34;3.00;99.90
3194;DHT22;1608;50.860;13.466;2022-12-10T03:04:08;3.00;99.90
3194;DHT22;1608;50.860;13.466;2022-12-10T03:06:39;2.90;99.90
3194;DHT22;1608;50.860;13.466;2022-12-10T03:09:13;3.00;99.90
3194;DHT22;1608;50.860;13.466;2022-12-10T03:11:43;3.10;99.90
3194;DHT22;1608;50.860;13.466;2022-12-10T03:14:14;3.10;99.90
3194;DHT22;1608;50.860;13.466;2022-12-10T03:16:46;3.10;99.90
3194;DHT22;1608;50.860;13.466;2022-12-10T03:19:18;3.20;99.90
3194;DHT22;1608;50.860;13.466;2022-12-10T03:21:47;3.30;99.90
3194;DHT22;1608;50.860;13.466;2022-12-10T03:24:15;3.30;99.90
3194;DHT22;1608;50.860;13.466;2022-12-10T03:26:45;3.40;99.90
3194;DHT22;1608;50.860;13.466;2022-12-10T03:29:15;3.30;99.90
3194;DHT22;1608;50.860;13.466;2022-12-10T03:31:46;3.40;99.90
3194;DHT22;1608;50.860;13.466;2022-12-10T03:34:14;3.40;99.90
3194;DHT22;1608;50.860;13.466;2022-12-10T03:36:42;3.30;99.90
3194;DHT22;1608;50.860;13.466;2022-12-10T03:39:09;3.30;99.90
3194;DHT22;1608;50.860;13.466;2022-12-10T03:41:36;3.30;99.90
3194;DHT22;1608;50.860;13.466;2022-12-10T03:44:03;3.20;99.90
3194;DHT22;1608;50.860;13.466;2022-12-10T03:46:31;3.20;99.90
3194;DHT22;1608;50.860;13.466;2022-12-10T03:49:00;3.20;99.90
3194;DHT22;1608;50.860;13.466;2022-12-10T03:51:27;3.20;99.90
3194;DHT22;1608;50.860;13.466;2022-12-10T03:53:54;3.20;99.90
3194;DHT22;1608;50.860;13.466;2022-12-10T03:56:21;3.20;99.90
3194;DHT22;1608;50.860;13.466;2022-12-10T03:58:48;3.20;99.90
3194;DHT22;1608;50.860;13.466;2022-12-10T04:01:16;3.20;99.90
3194;DHT22;1608;50.860;13.466;2022-12-10T04:03:43;3.20;99.90
3194;DHT22;1608;50.860;13.466;2022-12-10T04:06:17;3.30;99.90
3194;DHT22;1608;50.860;13.466;2022-12-10T04:08:44;3.40;99.90
3194;DHT22;1608;50.860;13.466;2022-12-10T04:11:12;3.50;99.90
3194;DHT22;1608;50.860;13.466;2022-12-10T04:13:39;3.50;99.90
3194;DHT22;1608;50.860;13.466;2022-12-10T04:16:24;3.60;99.90
3194;DHT22;1608;50.860;13.466;2022-12-10T04:18:55;3.50;99.90
3194;DHT22;1608;50.860;13.466;2022-12-10T04:21:23;3.50;99.90
3194;DHT22;1608;50.860;13.466;2022-12-10T04:24:08;3.50;99.90
3194;DHT22;1608;50.860;13.466;2022-12-10T04:26:53;3.50;99.90
3194;DHT22;1608;50.860;13.466;2022-12-10T04:29:22;3.60;99.90
3194;DHT22;1608;50.860;13.466;2022-12-10T04:31:49;3.60;99.90
3194;DHT22;1608;50.860;13.466;2022-12-10T04:34:15;3.50;99.90
3194;DHT22;1608;50.860;13.466;2022-12-10T04:36:44;3.60;99.90
3194;DHT22;1608;50.860;13.466;2022-12-10T04:39:10;3.60;99.90
3194;DHT22;1608;50.860;13.466;2022-12-10T04:41:39;3.50;99.90
3194;DHT22;1608;50.860;13.466;2022-12-10T04:44:06;3.40;99.90
3194;DHT22;1608;50.860;13.466;2022-12-10T04:46:33;3.40;99.90
3194;DHT22;1608;50.860;13.466;2022-12-10T04:49:00;3.40;99.90
3194;DHT22;1608;50.860;13.466;2022-12-10T04:51:27;3.40;99.90
3194;DHT22;1608;50.860;13.466;2022-12-10T04:53:55;3.40;99.90
3194;DHT22;1608;50.860;13.466;2022-12-10T04:56:22;3.40;99.90
3194;DHT22;1608;50.860;13.466;2022-12-10T04:58:49;3.40;99.90
3194;DHT22;1608;50.860;13.466;2022-12-10T05:01:16;3.40;99.90
3194;DHT22;1608;50.860;13.466;2022-12-10T05:03:44;3.40;99.90
3194;DHT22;1608;50.860;13.466;2022-12-10T05:06:12;3.50;99.90
3194;DHT22;1608;50.860;13.466;2022-12-10T05:08:40;3.70;99.90
3194;DHT22;1608;50.860;13.466;2022-12-10T05:11:10;3.30;99.90
3194;DHT22;1608;50.860;13.466;2022-12-10T05:13:38;3.20;99.90
3194;DHT22;1608;50.860;13.466;2022-12-10T05:16:08;3.10;99.90
3194;DHT22;1608;50.860;13.466;2022-12-10T05:18:35;3.10;99.90
3194;DHT22;1608;50.860;13.466;2022-12-10T05:21:04;3.20;99.90
3194;DHT22;1608;50.860;13.466;2022-12-10T05:23:32;3.20;99.90
3194;DHT22;1608;50.860;13.466;2022-12-10T05:25:59;3.20;99.90
3194;DHT22;1608;50.860;13.466;2022-12-10T05:28:28;3.20;99.90
3194;DHT22;1608;50.860;13.466;2022-12-10T05:30:55;3.30;99.90
3194;DHT22;1608;50.860;13.466;2022-12-10T05:33:23;3.20;99.90
3194;DHT22;1608;50.860;13.466;2022-12-10T05:35:54;2.00;99.90
3194;DHT22;1608;50.860;13.466;2022-12-10T05:38:21;3.10;99.90
3194;DHT22;1608;50.860;13.466;2022-12-10T05:40:49;3.10;99.90
3194;DHT22;1608;50.860;13.466;2022-12-10T05:43:16;3.10;99.90
3194;DHT22;1608;50.860;13.466;2022-12-10T05:45:44;3.10;99.90
3194;DHT22;1608;50.860;13.466;2022-12-10T05:48:14;3.00;99.90
3194;DHT22;1608;50.860;13.466;2022-12-10T05:50:41;3.00;99.90
3194;DHT22;1608;50.860;13.466;2022-12-10T05:53:07;2.90;99.90
3194;DHT22;1608;50.860;13.466;2022-12-10T05:55:34;2.80;99.90
3194;DHT22;1608;50.860;13.466;2022-12-10T05:58:01;2.80;99.90
3194;DHT22;1608;50.860;13.466;2022-12-10T06:00:28;2.90;99.90
3194;DHT22;1608;50.860;13.466;2022-12-10T06:02:56;3.00;99.90
3194;DHT22;1608;50.860;13.466;2022-12-10T06:05:23;3.20;99.90
3194;DHT22;1608;50.860;13.466;2022-12-10T06:07:50;3.10;99.90
3194;DHT22;1608;50.860;13.466;2022-12-10T06:10:17;3.20;99.90
3194;DHT22;1608;50.860;13.466;2022-12-10T06:12:44;3.00;99.90
3194;DHT22;1608;50.860;13.466;2022-12-10T06:15:11;3.10;99.90
3194;DHT22;1608;50.860;13.466;2022-12-10T06:17:37;3.10;99.90
3194;DHT22;1608;50.860;13.466;2022-12-10T06:20:07;3.10;99.90
3194;DHT22;1608;50.860;13.466;2022-12-10T06:22:34;3.10;99.90
3194;DHT22;1608;50.860;13.466;2022-12-10T06:25:01;3.10;99.90
3194;DHT22;1608;50.860;13.466;2022-12-10T06:27:29;3.10;99.90
3194;DHT22;1608;50.860;13.466;2022-12-10T06:29:56;3.10;99.90
3194;DHT22;1608;50.860;13.466;2022-12-10T06:32:23;3.10;99.90
3194;DHT22;1608;50.860;13.466;2022-12-10T06:34:50;3.10;99.90
3194;DHT22;1608;50.860;13.466;2022-12-10T06:37:18;3.00;99.90
3194;DHT22;1608;50.860;13.466;2022-12-10T06:39:45;3.10;99.90
3194;DHT22;1608;50.860;13.466;2022-12-10T06:42:12;3.10;99.90
3194;DHT22;1608;50.860;13.466;2022-12-10T06:44:39;3.10;99.90
3194;DHT22;1608;50.860;13.466;2022-12-10T06:47:06;3.00;99.90
3194;DHT22;1608;50.860;13.466;2022-12-10T06:49:33;3.00;99.90
3194;DHT22;1608;50.860;13.466;2022-12-10T06:52:00;3.00;99.90
3194;DHT22;1608;50.860;13.466;2022-12-10T06:54:28;2.90;99.90
3194;DHT22;1608;50.860;13.466;2022-12-10T06:56:55;2.80;99.90
3194;DHT22;1608;50.860;13.466;2022-12-10T06:59:22;2.80;99.90
3194;DHT22;1608;50.860;13.466;2022-12-10T07:01:49;2.90;99.90
3194;DHT22;1608;50.860;13.466;2022-12-10T07:04:16;3.00;99.90
3194;DHT22;1608;50.860;13.466;2022-12-10T07:06:43;3.30;99.90
3194;DHT22;1608;50.860;13.466;2022-12-10T07:09:10;3.40;99.90
3194;DHT22;1608;50.860;13.466;2022-12-10T07:11:38;3.50;99.90
3194;DHT22;1608;50.860;13.466;2022-12-10T07:14:05;3.40;99.90
3194;DHT22;1608;50.860;13.466;2022-12-10T07:16:33;3.40;99.90
3194;DHT22;1608;50.860;13.466;2022-12-10T07:19:02;3.40;99.90
3194;DHT22;1608;50.860;13.466;2022-12-10T07:21:30;3.30;99.90
3194;DHT22;1608;50.860;13.466;2022-12-10T07:24:00;3.10;99.90
3194;DHT22;1608;50.860;13.466;2022-12-10T07:26:28;2.90;99.90
3194;DHT22;1608;50.860;13.466;2022-12-10T07:28:58;2.80;99.90
3194;DHT22;1608;50.860;13.466;2022-12-10T07:31:26;2.90;99.90
3194;DHT22;1608;50.860;13.466;2022-12-10T07:33:53;2.80;99.90
3194;DHT22;1608;50.860;13.466;2022-12-10T07:36:22;2.80;99.90
3194;DHT22;1608;50.860;13.466;2022-12-10T07:38:49;2.80;99.90
3194;DHT22;1608;50.860;13.466;2022-12-10T07:41:16;2.60;99.90
3194;DHT22;1608;50.860;13.466;2022-12-10T07:43:44;2.50;99.90
3194;DHT22;1608;50.860;13.466;2022-12-10T07:46:15;2.30;99.90
3194;DHT22;1608;50.860;13.466;2022-12-10T07:48:44;2.40;99.90
3194;DHT22;1608;50.860;13.466;2022-12-10T07:51:11;2.30;99.90
3194;DHT22;1608;50.860;13.466;2022-12-10T07:53:39;2.30;99.90
3194;DHT22;1608;50.860;13.466;2022-12-10T07:56:06;2.50;99.90
3194;DHT22;1608;50.860;13.466;2022-12-10T07:58:34;2.50;99.90
3194;DHT22;1608;50.860;13.466;2022-12-10T08:01:06;2.50;99.90
3194;DHT22;1608;50.860;13.466;2022-12-10T08:03:34;2.70;99.90
3194;DHT22;1608;50.860;13.466;2022-12-10T08:06:01;2.90;99.90
3194;DHT22;1608;50.860;13.466;2022-12-10T08:08:28;3.20;99.90
3194;DHT22;1608;50.860;13.466;2022-12-10T08:10:55;3.30;99.90
3194;DHT22;1608;50.860;13.466;2022-12-10T08:13:25;3.50;99.90
3194;DHT22;1608;50.860;13.466;2022-12-10T08:15:51;3.60;99.90
3194;DHT22;1608;50.860;13.466;2022-12-10T08:18:18;3.70;99.90
3194;DHT22;1608;50.860;13.466;2022-12-10T08:20:46;3.70;99.90
3194;DHT22;1608;50.860;13.466;2022-12-10T08:23:13;3.80;99.90
3194;DHT22;1608;50.860;13.466;2022-12-10T08:25:40;3.90;99.90
3194;DHT22;1608;50.860;13.466;2022-12-10T08:28:07;3.70;99.90
3194;DHT22;1608;50.860;13.466;2022-12-10T08:30:34;3.70;99.90
3194;DHT22;1608;50.860;13.466;2022-12-10T08:33:01;3.80;99.90
3194;DHT22;1608;50.860;13.466;2022-12-10T08:35:28;4.40;99.90
3194;DHT22;1608;50.860;13.466;2022-12-10T08:37:56;4.00;99.90
3194;DHT22;1608;50.860;13.466;2022-12-10T08:40:23;4.10;99.90
3194;DHT22;1608;50.860;13.466;2022-12-10T08:42:51;4.10;99.90
3194;DHT22;1608;50.860;13.466;2022-12-10T08:45:18;4.20;99.90
3194;DHT22;1608;50.860;13.466;2022-12-10T08:47:45;4.20;99.90
3194;DHT22;1608;50.860;13.466;2022-12-10T08:50:11;4.10;99.90
3194;DHT22;1608;50.860;13.466;2022-12-10T08:52:38;4.10;99.90
3194;DHT22;1608;50.860;13.466;2022-12-10T08:55:07;4.10;99.90
3194;DHT22;1608;50.860;13.466;2022-12-10T08:57:34;4.10;99.90
3194;DHT22;1608;50.860;13.466;2022-12-10T09:00:02;4.20;99.90
3194;DHT22;1608;50.860;13.466;2022-12-10T09:02:29;4.00;99.90
3194;DHT22;1608;50.860;13.466;2022-12-10T09:04:56;4.00;99.90
3194;DHT22;1608;50.860;13.466;2022-12-10T09:07:23;4.10;99.90
3194;DHT22;1608;50.860;13.466;2022-12-10T09:09:50;4.10;99.90
3194;DHT22;1608;50.860;13.466;2022-12-10T09:12:18;4.20;99.90
3194;DHT22;1608;50.860;13.466;2022-12-10T09:14:45;4.20;99.90
3194;DHT22;1608;50.860;13.466;2022-12-10T09:17:11;4.30;99.90
3194;DHT22;1608;50.860;13.466;2022-12-10T09:19:38;4.50;99.90
3194;DHT22;1608;50.860;13.466;2022-12-10T09:22:05;4.50;99.90
3194;DHT22;1608;50.860;13.466;2022-12-10T09:24:32;4.50;99.90
3194;DHT22;1608;50.860;13.466;2022-12-10T09:26:59;4.60;99.90
3194;DHT22;1608;50.860;13.466;2022-12-10T09:29:28;4.60;99.90
3194;DHT22;1608;50.860;13.466;2022-12-10T09:31:55;4.60;99.90
3194;DHT22;1608;50.860;13.466;2022-12-10T09:34:21;4.60;99.90
3194;DHT22;1608;50.860;13.466;2022-12-10T09:36:48;4.60;99.90
3194;DHT22;1608;50.860;13.466;2022-12-10T09:39:15;4.60;99.90
3194;DHT22;1608;50.860;13.466;2022-12-10T09:41:56;4.40;99.90
3194;DHT22;1608;50.860;13.466;2022-12-10T09:44:41;4.10;99.90
3194;DHT22;1608;50.860;13.466;2022-12-10T09:47:10;4.00;99.90
3194;DHT22;1608;50.860;13.466;2022-12-10T09:49:48;4.20;99.90
3194;DHT22;1608;50.860;13.466;2022-12-10T09:52:21;4.40;99.90
3194;DHT22;1608;50.860;13.466;2022-12-10T09:54:52;4.50;99.90
3194;DHT22;1608;50.860;13.466;2022-12-10T09:57:24;4.60;99.90
3194;DHT22;1608;50.860;13.466;2022-12-10T09:59:55;4.60;99.90
3194;DHT22;1608;50.860;13.466;2022-12-10T10:02:24;4.40;99.90
3194;DHT22;1608;50.860;13.466;2022-12-10T10:04:55;4.30;99.90
3194;DHT22;1608;50.860;13.466;2022-12-10T10:07:26;4.00;99.90
3194;DHT22;1608;50.860;13.466;2022-12-10T10:09:58;3.70;99.90
3194;DHT22;1608;50.860;13.466;2022-12-10T10:12:27;3.60;99.90
3194;DHT22;1608;50.860;13.466;2022-12-10T10:14:56;3.40;99.90
3194;DHT22;1608;50.860;13.466;2022-12-10T10:17:27;3.30;99.90
3194;DHT22;1608;50.860;13.466;2022-12-10T10:19:55;3.20;99.90
3194;DHT22;1608;50.860;13.466;2022-12-10T10:22:22;3.20;99.90
3194;DHT22;1608;50.860;13.466;2022-12-10T10:24:49;3.10;99.90
3194;DHT22;1608;50.860;13.466;2022-12-10T10:27:17;3.00;99.90
3194;DHT22;1608;50.860;13.466;2022-12-10T10:29:46;3.00;99.90
3194;DHT22;1608;50.860;13.466;2022-12-10T10:32:17;3.00;99.90
3194;DHT22;1608;50.860;13.466;2022-12-10T10:34:46;2.90;99.90
3194;DHT22;1608;50.860;13.466;2022-12-10T10:37:25;2.90;99.90
3194;DHT22;1608;50.860;13.466;2022-12-10T10:39:52;3.00;99.90
3194;DHT22;1608;50.860;13.466;2022-12-10T10:42:32;3.10;99.90
3194;DHT22;1608;50.860;13.466;2022-12-10T10:45:02;3.30;99.90
3194;DHT22;1608;50.860;13.466;2022-12-10T10:47:32;3.40;99.90
3194;DHT22;1608;50.860;13.466;2022-12-10T10:49:59;3.20;99.90
3194;DHT22;1608;50.860;13.466;2022-12-10T10:52:28;3.30;99.90
3194;DHT22;1608;50.860;13.466;2022-12-10T10:54:56;3.20;99.90
3194;DHT22;1608;50.860;13.466;2022-12-10T10:57:24;3.20;99.90
3194;DHT22;1608;50.860;13.466;2022-12-10T10:59:54;3.20;99.90
3194;DHT22;1608;50.860;13.466;2022-12-10T11:02:25;3.30;99.90
3194;DHT22;1608;50.860;13.466;2022-12-10T11:04:55;3.40;99.90
3194;DHT22;1608;50.860;13.466;2022-12-10T11:07:32;3.40;99.90
3194;DHT22;1608;50.860;13.466;2022-12-10T11:10:00;3.40;99.90
3194;DHT22;1608;50.860;13.466;2022-12-10T11:12:33;3.50;99.90
3194;DHT22;1608;50.860;13.466;2022-12-10T11:15:00;3.60;99.90
3194;DHT22;1608;50.860;13.466;2022-12-10T11:17:27;3.60;99.90
3194;DHT22;1608;50.860;13.466;2022-12-10T11:19:58;3.70;99.90
3194;DHT22;1608;50.860;13.466;2022-12-10T11:22:27;3.30;99.90
3194;DHT22;1608;50.860;13.466;2022-12-10T11:24:55;3.20;99.90
3194;DHT22;1608;50.860;13.466;2022-12-10T11:27:37;2.90;99.90
3194;DHT22;1608;50.860;13.466;2022-12-10T11:30:09;2.80;99.90
3194;DHT22;1608;50.860;13.466;2022-12-10T11:32:51;2.80;99.90
3194;DHT22;1608;50.860;13.466;2022-12-10T11:35:30;3.00;99.90
3194;DHT22;1608;50.860;13.466;2022-12-10T11:38:09;3.20;99.90
3194;DHT22;1608;50.860;13.466;2022-12-10T11:40:45;3.20;99.90
3194;DHT22;1608;50.860;13.466;2022-12-10T11:43:33;2.80;99.90
3194;DHT22;1608;50.860;13.466;2022-12-10T11:46:18;2.40;99.90
3194;DHT22;1608;50.860;13.466;2022-12-10T11:49:00;2.90;99.90
3194;DHT22;1608;50.860;13.466;2022-12-10T11:51:35;2.90;99.90
3194;DHT22;1608;50.860;13.466;2022-12-10T11:54:26;2.80;99.90
3194;DHT22;1608;50.860;13.466;2022-12-10T11:57:01;2.50;99.90
3194;DHT22;1608;50.860;13.466;2022-12-10T11:59:34;2.50;99.90
3194;DHT22;1608;50.860;13.466;2022-12-10T12:02:21;2.90;99.90
3194;DHT22;1608;50.860;13.466;2022-12-10T12:05:09;3.20;99.90
3194;DHT22;1608;50.860;13.466;2022-12-10T12:07:47;3.30;99.90
3194;DHT22;1608;50.860;13.466;2022-12-10T12:10:45;3.40;99.90
3194;DHT22;1608;50.860;13.466;2022-12-10T12:13:15;3.20;99.90
3194;DHT22;1608;50.860;13.466;2022-12-10T12:15:47;3.20;99.90
3194;DHT22;1608;50.860;13.466;2022-12-10T12:18:20;3.10;99.90
3194;DHT22;1608;50.860;13.466;2022-12-10T12:20:51;3.40;99.90
3194;DHT22;1608;50.860;13.466;2022-12-10T12:23:24;3.40;99.90
3194;DHT22;1608;50.860;13.466;2022-12-10T12:25:57;3.40;99.90
3194;DHT22;1608;50.860;13.466;2022-12-10T12:28:27;3.40;99.90
3194;DHT22;1608;50.860;13.466;2022-12-10T12:31:01;3.30;99.90
3194;DHT22;1608;50.860;13.466;2022-12-10T12:33:35;3.30;99.90
3194;DHT22;1608;50.860;13.466;2022-12-10T12:36:11;2.50;99.90
3194;DHT22;1608;50.860;13.466;2022-12-10T12:38:47;2.90;99.90
3194;DHT22;1608;50.860;13.466;2022-12-10T12:41:21;2.70;99.90
3194;DHT22;1608;50.860;13.466;2022-12-10T12:43:55;2.80;99.90
3194;DHT22;1608;50.860;13.466;2022-12-10T12:46:30;3.20;99.90
3194;DHT22;1608;50.860;13.466;2022-12-10T12:49:02;3.50;99.90
3194;DHT22;1608;50.860;13.466;2022-12-10T12:51:34;3.20;99.90
3194;DHT22;1608;50.860;13.466;2022-12-10T12:54:04;3.60;99.90
3194;DHT22;1608;50.860;13.466;2022-12-10T12:56:48;3.60;99.90
3194;DHT22;1608;50.860;13.466;2022-12-10T12:59:30;3.80;99.90
3194;DHT22;1608;50.860;13.466;2022-12-10T13:02:00;3.60;99.90
3194;DHT22;1608;50.860;13.466;2022-12-10T13:04:29;3.70;99.90
3194;DHT22;1608;50.860;13.466;2022-12-10T13:07:11;3.80;99.90
3194;DHT22;1608;50.860;13.466;2022-12-10T13:10:18;3.80;99.90
3194;DHT22;1608;50.860;13.466;2022-12-10T13:12:50;3.60;99.90
3194;DHT22;1608;50.860;13.466;2022-12-10T13:15:19;3.50;99.90
3194;DHT22;1608;50.860;13.466;2022-12-10T13:18:21;3.30;99.90
3194;DHT22;1608;50.860;13.466;2022-12-10T13:20:49;2.70;99.90
3194;DHT22;1608;50.860;13.466;2022-12-10T13:23:31;2.60;99.90
3194;DHT22;1608;50.860;13.466;2022-12-10T13:26:01;2.90;99.90
3194;DHT22;1608;50.860;13.466;2022-12-10T13:28:40;2.90;99.90
3194;DHT22;1608;50.860;13.466;2022-12-10T13:31:21;3.00;99.90
3194;DHT22;1608;50.860;13.466;2022-12-10T13:33:52;2.70;99.90
3194;DHT22;1608;50.860;13.466;2022-12-10T13:36:23;2.40;99.90
3194;DHT22;1608;50.860;13.466;2022-12-10T13:39:20;2.50;99.90
3194;DHT22;1608;50.860;13.466;2022-12-10T13:45:25;2.30;99.90
3194;DHT22;1608;50.860;13.466;2022-12-10T13:47:54;2.80;99.90
3194;DHT22;1608;50.860;13.466;2022-12-10T13:50:34;2.70;99.90
3194;DHT22;1608;50.860;13.466;2022-12-10T13:53:07;2.70;99.90
3194;DHT22;1608;50.860;13.466;2022-12-10T13:55:39;3.10;99.90
3194;DHT22;1608;50.860;13.466;2022-12-10T13:58:30;3.00;99.90
3194;DHT22;1608;50.860;13.466;2022-12-10T14:01:08;2.90;99.90
3194;DHT22;1608;50.860;13.466;2022-12-10T14:06:33;2.90;99.90
3194;DHT22;1608;50.860;13.466;2022-12-10T14:09:04;2.70;99.90
3194;DHT22;1608;50.860;13.466;2022-12-10T14:11:35;2.60;99.90
3194;DHT22;1608;50.860;13.466;2022-12-10T14:14:05;2.80;99.90
3194;DHT22;1608;50.860;13.466;2022-12-10T14:16:34;2.90;99.90
3194;DHT22;1608;50.860;13.466;2022-12-10T14:19:04;2.90;99.90
3194;DHT22;1608;50.860;13.466;2022-12-10T14:21:33;2.90;99.90
3194;DHT22;1608;50.860;13.466;2022-12-10T14:24:01;3.10;99.90
3194;DHT22;1608;50.860;13.466;2022-12-10T14:26:30;3.20;99.90
3194;DHT22;1608;50.860;13.466;2022-12-10T14:28:59;3.20;99.90
3194;DHT22;1608;50.860;13.466;2022-12-10T14:31:28;3.10;99.90
3194;DHT22;1608;50.860;13.466;2022-12-10T14:34:00;2.80;99.90
3194;DHT22;1608;50.860;13.466;2022-12-10T14:38:56;2.80;99.90
3194;DHT22;1608;50.860;13.466;2022-12-10T14:41:24;3.00;99.90
3194;DHT22;1608;50.860;13.466;2022-12-10T14:43:51;3.00;99.90
3194;DHT22;1608;50.860;13.466;2022-12-10T14:46:21;2.90;99.90
3194;DHT22;1608;50.860;13.466;2022-12-10T14:48:50;2.50;99.90
3194;DHT22;1608;50.860;13.466;2022-12-10T14:51:21;2.30;99.90
3194;DHT22;1608;50.860;13.466;2022-12-10T14:53:50;2.50;99.90
3194;DHT22;1608;50.860;13.466;2022-12-10T14:56:22;2.50;99.90
3194;DHT22;1608;50.860;13.466;2022-12-10T14:58:55;2.00;99.90
3194;DHT22;1608;50.860;13.466;2022-12-10T15:01:27;2.30;99.90
3194;DHT22;1608;50.860;13.466;2022-12-10T15:03:56;2.60;99.90
3194;DHT22;1608;50.860;13.466;2022-12-10T15:06:26;2.30;99.90
3194;DHT22;1608;50.860;13.466;2022-12-10T15:08:55;2.40;99.90
3194;DHT22;1608;50.860;13.466;2022-12-10T15:11:23;2.50;99.90
3194;DHT22;1608;50.860;13.466;2022-12-10T15:13:53;2.60;99.90
3194;DHT22;1608;50.860;13.466;2022-12-10T15:16:29;3.20;99.90
3194;DHT22;1608;50.860;13.466;2022-12-10T15:19:07;3.00;99.90
3194;DHT22;1608;50.860;13.466;2022-12-10T15:21:41;2.80;99.90
3194;DHT22;1608;50.860;13.466;2022-12-10T15:24:13;2.90;99.90
3194;DHT22;1608;50.860;13.466;2022-12-10T15:26:42;2.80;99.90
3194;DHT22;1608;50.860;13.466;2022-12-10T15:29:33;2.80;99.90
3194;DHT22;1608;50.860;13.466;2022-12-10T15:32:05;2.40;99.90
3194;DHT22;1608;50.860;13.466;2022-12-10T15:34:38;2.20;99.90
3194;DHT22;1608;50.860;13.466;2022-12-10T15:37:15;2.00;99.90
3194;DHT22;1608;50.860;13.466;2022-12-10T15:39:46;1.70;99.90
3194;DHT22;1608;50.860;13.466;2022-12-10T15:42:35;1.60;99.90
3194;DHT22;1608;50.860;13.466;2022-12-10T15:45:10;1.60;99.90
3194;DHT22;1608;50.860;13.466;2022-12-10T15:47:38;1.80;99.90
3194;DHT22;1608;50.860;13.466;2022-12-10T15:50:06;1.70;99.90
3194;DHT22;1608;50.860;13.466;2022-12-10T15:52:34;1.90;99.90
3194;DHT22;1608;50.860;13.466;2022-12-10T15:55:02;2.10;99.90
3194;DHT22;1608;50.860;13.466;2022-12-10T15:57:30;2.00;99.90
3194;DHT22;1608;50.860;13.466;2022-12-10T15:59:59;1.80;99.90
3194;DHT22;1608;50.860;13.466;2022-12-10T16:02:35;1.50;99.90
3194;DHT22;1608;50.860;13.466;2022-12-10T16:05:10;1.50;99.90
3194;DHT22;1608;50.860;13.466;2022-12-10T16:07:41;1.30;99.90
3194;DHT22;1608;50.860;13.466;2022-12-10T16:10:09;1.60;99.90
3194;DHT22;1608;50.860;13.466;2022-12-10T16:12:37;1.80;99.90
3194;DHT22;1608;50.860;13.466;2022-12-10T16:15:07;1.70;99.90
3194;DHT22;1608;50.860;13.466;2022-12-10T16:17:37;1.90;99.90
3194;DHT22;1608;50.860;13.466;2022-12-10T16:20:16;1.60;99.90
3194;DHT22;1608;50.860;13.466;2022-12-10T16:22:45;1.70;99.90
3194;DHT22;1608;50.860;13.466;2022-12-10T16:25:13;1.70;99.90
3194;DHT22;1608;50.860;13.466;2022-12-10T16:27:40;1.60;99.90
3194;DHT22;1608;50.860;13.466;2022-12-10T16:30:13;1.60;99.90
3194;DHT22;1608;50.860;13.466;2022-12-10T16:32:40;1.40;99.90